Terminal Aerodrome Forecast
Issued by NWS

Home | Current Version | Previous Version | Text Only | Print | Product List | Glossary On
Versions: 1 2 3 4 5 6 7 8 9 10 11 12 13 14 15 16 17 18 19 20 21 22 23 24 25 26 27 28 29 30 31 32 33 34 35 36 37 38 39
000
FTUS42 KGSP 292105 AAA
TAFHKY
TAF AMD
KHKY 292105Z 2921/3018 14004KT P6SM VCSH SCT040
     FM292300 00000KT P6SM VCTS BKN045CB
     FM300100 00000KT P6SM SCT045
     FM300900 00000KT 3SM BR SCT040
     FM301300 00000KT P6SM SCT045=

USA.gov is the U.S. government's official web portal to all federal, state and local government web resources and services.